Time;durP1;ratioP1;P1;durP2;ratioP2;P2;SDS_P1;SDS_P2;PMS_P1;PMS_P2;Temp;Humidity;BMP_temperature;BMP_pressure;BME280_temperature;BME280_humidity;BME280_pressure;Samples;Min_cycle;Max_cycle;Signal;HPM_P1;HPM_P2
2021/11/15 00:02:09;;;;;;;6.13;4.95;;;;;;;12.18;62.73;98805.81;5092878;28;20035;-53
2021/11/15 00:04:35;;;;;;;6.75;5.28;;;;;;;12.27;62.61;98810.84;5093009;28;20499;-53
2021/11/15 00:07:01;;;;;;;12.13;6.25;;;;;;;12.23;62.28;98813.06;5092683;28;20076;-53
2021/11/15 00:09:28;;;;;;;7.10;5.07;;;;;;;12.23;62.48;98810.44;5092755;28;20012;-53
2021/11/15 00:11:54;;;;;;;6.00;5.22;;;;;;;12.30;62.02;98807.81;5092776;28;20032;-53
2021/11/15 00:14:20;;;;;;;10.77;5.53;;;;;;;12.33;62.00;98807.38;5092714;28;20390;-53
2021/11/15 00:16:46;;;;;;;146.57;110.15;;;;;;;12.33;61.79;98813.44;5092656;28;20078;-52
2021/11/15 00:19:12;;;;;;;26.15;21.30;;;;;;;12.31;61.79;98812.03;5092660;28;20104;-52
2021/11/15 00:21:38;;;;;;;17.77;16.02;;;;;;;12.30;61.87;98808.59;5092629;28;20107;-53
2021/11/15 00:24:04;;;;;;;32.55;21.88;;;;;;;12.30;62.12;98811.25;5092578;28;20019;-53
2021/11/15 00:26:30;;;;;;;8.82;6.70;;;;;;;12.31;61.86;98809.41;5091865;28;20131;-53
2021/11/15 00:28:56;;;;;;;8.63;6.43;;;;;;;12.35;61.57;98813.22;5092474;28;20031;-52
2021/11/15 00:31:24;;;;;;;10.38;5.90;;;;;;;12.37;61.55;98800.69;5092204;28;20027;-53
2021/11/15 00:33:51;;;;;;;6.97;6.18;;;;;;;12.31;61.40;98801.50;5092365;28;20027;-52
2021/11/15 00:36:17;;;;;;;6.65;4.95;;;;;;;12.32;61.40;98803.94;5090959;28;20074;-53
2021/11/15 00:38:43;;;;;;;11.90;5.40;;;;;;;12.28;61.42;98799.31;5090961;28;20085;-53
2021/11/15 00:41:08;;;;;;;10.27;5.82;;;;;;;12.38;61.65;98803.09;5090879;28;20443;-53
2021/11/15 00:43:34;;;;;;;9.55;5.72;;;;;;;12.75;61.13;98800.69;5092193;28;20020;-54
2021/11/15 00:46:00;;;;;;;7.85;5.43;;;;;;;13.14;60.08;98798.03;5092038;28;20024;-53
2021/11/15 00:48:26;;;;;;;7.00;6.30;;;;;;;13.18;58.80;98805.28;5090781;28;20020;-53
2021/11/15 00:50:51;;;;;;;9.73;5.70;;;;;;;12.68;59.04;98809.66;5092153;28;20017;-54
2021/11/15 00:53:17;;;;;;;8.10;5.80;;;;;;;12.08;60.71;98799.38;5092074;28;20512;-53
2021/11/15 00:55:44;;;;;;;7.80;5.90;;;;;;;11.96;61.66;98800.00;5092050;28;20024;-53
2021/11/15 00:58:09;;;;;;;7.25;5.68;;;;;;;11.85;61.79;98798.00;5090733;28;20576;-53
2021/11/15 01:00:37;;;;;;;6.53;5.93;;;;;;;11.64;62.49;98806.09;5091960;28;20087;-53
2021/11/15 01:03:07;;;;;;;8.40;5.97;;;;;;;11.34;63.14;98803.88;5091976;28;20031;-53
2021/11/15 01:05:37;;;;;;;11.25;6.53;;;;;;;11.22;63.70;98805.50;5091854;28;20028;-53
2021/11/15 01:08:05;;;;;;;7.68;6.90;;;;;;;11.24;63.76;98806.91;5091952;28;20028;-52
2021/11/15 01:10:31;;;;;;;7.18;6.25;;;;;;;11.30;63.77;98815.81;5090476;28;20058;-54
2021/11/15 01:12:57;;;;;;;24.25;7.43;;;;;;;11.25;63.84;98802.47;5091870;28;20028;-54
2021/11/15 01:15:26;;;;;;;10.07;5.45;;;;;;;11.66;64.21;98804.88;5090469;28;20111;-54
2021/11/15 01:17:53;;;;;;;9.88;5.60;;;;;;;12.15;62.70;98798.34;5090797;28;20081;-53
2021/11/15 01:20:23;;;;;;;7.07;5.57;;;;;;;12.53;62.18;98802.81;5091806;28;20427;-54
2021/11/15 01:22:49;;;;;;;10.88;6.82;;;;;;;12.75;61.65;98797.25;5092416;28;20390;-54
2021/11/15 01:25:16;;;;;;;7.65;5.60;;;;;;;13.04;60.65;98793.22;5090087;28;20048;-53
2021/11/15 01:27:41;;;;;;;8.57;5.75;;;;;;;13.25;59.74;98778.88;5091774;28;20370;-52
2021/11/15 01:30:11;;;;;;;15.90;6.82;;;;;;;13.30;59.19;98788.78;5091719;28;20080;-54
2021/11/15 01:32:38;;;;;;;6.15;5.55;;;;;;;13.13;59.19;98784.03;5091696;28;20028;-54
2021/11/15 01:35:05;;;;;;;7.88;5.30;;;;;;;13.08;59.85;98777.78;5090301;28;20052;-53
2021/11/15 01:37:31;;;;;;;10.75;5.35;;;;;;;13.31;59.25;98770.13;5090264;28;20016;-53
2021/11/15 01:39:57;;;;;;;6.28;5.68;;;;;;;13.33;58.18;98781.28;5090308;28;20047;-53
2021/11/15 01:42:23;;;;;;;16.33;6.57;;;;;;;13.10;58.75;98783.66;5093938;28;20091;-53
2021/11/15 01:44:49;;;;;;;32.22;11.85;;;;;;;12.95;59.11;98781.31;5095423;28;20521;-53
2021/11/15 01:47:15;;;;;;;9.98;6.65;;;;;;;12.84;59.47;98793.38;5094204;28;20031;-54
2021/11/15 01:49:41;;;;;;;7.97;6.63;;;;;;;12.27;60.00;98800.31;5094105;28;20119;-53
2021/11/15 01:52:07;;;;;;;7.60;6.88;;;;;;;11.87;61.21;98800.41;5095338;28;20042;-52
2021/11/15 01:54:34;;;;;;;8.85;6.80;;;;;;;11.87;61.69;98805.66;5094066;28;20031;-53
2021/11/15 01:56:59;;;;;;;12.88;7.35;;;;;;;11.85;62.05;98803.25;5095305;28;20024;-52
2021/11/15 01:59:27;;;;;;;11.40;6.97;;;;;;;11.91;61.55;98809.53;5093993;28;20499;-53
2021/11/15 02:01:52;;;;;;;16.27;7.78;;;;;;;11.93;61.70;98815.38;5095206;28;20062;-52
2021/11/15 02:04:18;;;;;;;15.02;7.38;;;;;;;12.02;61.50;98808.09;5093888;28;20440;-53
2021/11/15 02:06:44;;;;;;;13.02;11.10;;;;;;;12.08;61.22;98800.19;5093672;28;20497;-53
2021/11/15 02:09:10;;;;;;;6.80;6.07;;;;;;;12.07;61.27;98803.81;5095097;28;20070;-52
2021/11/15 02:11:36;;;;;;;6.93;6.18;;;;;;;12.00;61.23;98805.66;5093729;28;20042;-53
2021/11/15 02:14:03;;;;;;;11.02;6.10;;;;;;;11.92;61.29;98811.16;5095033;28;20074;-53
2021/11/15 02:16:31;;;;;;;9.05;7.15;;;;;;;11.87;61.32;98806.47;5093636;28;20028;-52
2021/11/15 02:18:58;;;;;;;13.57;6.97;;;;;;;11.80;61.43;98801.22;5093659;28;20401;-53
2021/11/15 02:21:24;;;;;;;8.90;6.90;;;;;;;11.80;61.55;98801.22;5094890;28;20370;-53
2021/11/15 02:23:51;;;;;;;7.50;6.80;;;;;;;11.82;61.79;98797.59;5094789;28;20034;-53
2021/11/15 02:26:20;;;;;;;9.13;6.50;;;;;;;11.80;61.68;98795.16;5092920;28;20130;-52
2021/11/15 02:28:52;;;;;;;9.60;7.60;;;;;;;11.77;62.07;98785.03;5093376;28;20024;-52
2021/11/15 02:31:22;;;;;;;12.40;6.82;;;;;;;11.77;62.12;98775.34;5093386;28;20127;-53
2021/11/15 02:33:51;;;;;;;17.77;10.02;;;;;;;11.76;62.11;98778.19;5094685;28;20520;-53
2021/11/15 02:36:19;;;;;;;12.90;7.85;;;;;;;11.72;62.06;98782.22;5094642;28;20520;-53
2021/11/15 02:38:47;;;;;;;12.00;7.30;;;;;;;11.74;61.89;98778.38;5094495;28;20047;-52
2021/11/15 02:41:14;;;;;;;8.57;7.28;;;;;;;11.75;62.02;98782.63;5094465;28;20048;-53
2021/11/15 02:43:39;;;;;;;11.13;7.60;;;;;;;11.68;61.76;98779.19;5094467;28;20032;-53
2021/11/15 02:46:05;;;;;;;11.35;7.78;;;;;;;11.63;62.30;98778.19;5093082;28;20064;-53
2021/11/15 02:48:31;;;;;;;14.45;8.07;;;;;;;11.57;62.11;98778.00;5094378;28;20031;-53
2021/11/15 02:50:57;;;;;;;13.52;7.95;;;;;;;11.53;62.43;98783.84;5093017;28;20024;-52
2021/11/15 02:53:24;;;;;;;12.18;9.02;;;;;;;11.56;62.58;98788.72;5092938;28;20030;-53
2021/11/15 02:55:50;;;;;;;14.35;8.50;;;;;;;11.58;62.48;98786.69;5094164;28;20382;-52
2021/11/15 02:58:16;;;;;;;14.30;9.27;;;;;;;11.54;62.38;98788.13;5094196;28;20039;-53
2021/11/15 03:00:53;;;;;;;10.40;8.45;;;;;;;11.48;62.43;98789.72;5094061;28;20028;-53
2021/11/15 03:03:19;;;;;;;12.63;8.80;;;;;;;11.45;62.22;98792.78;5092805;28;20032;-53
2021/11/15 03:05:48;;;;;;;11.57;9.45;;;;;;;11.38;62.92;98786.72;5093926;28;20020;-53
2021/11/15 03:08:15;;;;;;;39.05;19.38;;;;;;;11.35;63.04;98777.41;5092684;28;20052;-53
2021/11/15 03:10:43;;;;;;;14.30;8.85;;;;;;;11.33;62.81;98778.66;5092567;28;20021;-53
2021/11/15 03:13:11;;;;;;;11.10;8.38;;;;;;;11.30;63.04;98761.44;5093899;28;20517;-53
2021/11/15 03:15:46;;;;;;;15.40;9.05;;;;;;;11.32;62.79;98769.13;5092552;28;20055;-52
2021/11/15 03:18:19;;;;;;;14.63;8.48;;;;;;;11.37;62.94;98782.47;5093856;28;20042;-52
2021/11/15 03:20:48;;;;;;;12.45;8.65;;;;;;;11.43;62.63;98778.22;5093763;28;20056;-52
2021/11/15 03:23:17;;;;;;;9.27;7.97;;;;;;;11.39;62.50;98776.00;5093707;28;20485;-53
2021/11/15 03:25:45;;;;;;;16.27;9.10;;;;;;;11.36;62.55;98778.22;5093316;28;20048;-53
2021/11/15 03:28:12;;;;;;;22.63;9.63;;;;;;;11.31;62.97;98785.91;5092252;28;20490;-52
2021/11/15 03:30:39;;;;;;;15.90;9.52;;;;;;;11.27;62.92;98788.13;5093528;28;20020;-52
2021/11/15 03:33:07;;;;;;;11.85;9.35;;;;;;;11.18;62.77;98784.09;5093481;28;20386;-52
2021/11/15 03:35:33;;;;;;;16.20;10.38;;;;;;;10.96;63.62;98786.88;5092254;28;20032;-53
2021/11/15 03:37:59;;;;;;;15.02;9.27;;;;;;;10.89;63.90;98786.09;5092077;28;20027;-53
2021/11/15 03:40:26;;;;;;;13.88;10.27;;;;;;;10.93;64.09;98781.25;5093347;28;20413;-53
2021/11/15 03:42:55;;;;;;;21.08;10.35;;;;;;;10.88;64.02;98776.56;5093248;28;20028;-53
2021/11/15 03:45:23;;;;;;;14.82;10.13;;;;;;;10.89;64.03;98777.41;5093169;28;20024;-53
2021/11/15 03:47:49;;;;;;;16.38;9.63;;;;;;;10.93;63.94;98776.78;5093178;28;20027;-52
2021/11/15 03:50:16;;;;;;;11.68;9.05;;;;;;;10.96;64.00;98765.88;5093173;28;20020;-53
2021/11/15 03:52:44;;;;;;;15.05;9.02;;;;;;;11.00;63.98;98755.78;5091741;28;20054;-53
2021/11/15 03:55:12;;;;;;;11.23;8.52;;;;;;;11.07;63.89;98747.94;5093049;28;20374;-53
2021/11/15 03:57:38;;;;;;;16.92;8.73;;;;;;;11.13;63.90;98749.75;5093044;28;20023;-53
2021/11/15 04:00:07;;;;;;;15.10;8.70;;;;;;;11.24;63.56;98750.94;5092949;28;20436;-52
2021/11/15 04:02:34;;;;;;;11.07;9.35;;;;;;;11.30;63.33;98747.50;5091589;28;20020;-53
2021/11/15 04:05:04;;;;;;;12.68;9.77;;;;;;;11.31;63.18;98749.13;5092294;28;20028;-52
2021/11/15 04:07:37;;;;;;;12.98;9.23;;;;;;;11.30;63.24;98745.69;5092912;28;20062;-53
2021/11/15 04:10:33;;;;;;;15.75;8.75;;;;;;;11.38;63.18;98745.47;5091452;28;20063;-52
2021/11/15 04:13:02;;;;;;;14.07;9.40;;;;;;;11.50;62.36;98750.13;5090558;28;20185;-53
2021/11/15 04:15:28;;;;;;;16.75;9.15;;;;;;;11.47;62.55;98755.75;5091360;28;20032;-53
2021/11/15 04:17:55;;;;;;;17.38;8.10;;;;;;;11.44;62.09;98754.34;5092571;28;20024;-53
2021/11/15 04:20:23;;;;;;;21.63;8.98;;;;;;;11.47;62.08;98766.28;5092597;28;20383;-53
2021/11/15 04:22:49;;;;;;;15.43;8.95;;;;;;;11.44;62.27;98761.44;5092592;28;20131;-53
2021/11/15 04:25:15;;;;;;;13.63;8.93;;;;;;;11.36;62.02;98762.47;5074099;28;20527;-52
2021/11/15 04:27:41;;;;;;;12.55;8.65;;;;;;;11.27;62.08;98766.28;5092445;28;20020;-53
2021/11/15 04:30:09;;;;;;;19.40;10.07;;;;;;;11.15;62.43;98766.91;5092378;28;20020;-53
2021/11/15 04:32:38;;;;;;;15.23;8.77;;;;;;;11.12;62.61;98771.75;5091053;28;20027;-52
2021/11/15 04:35:05;;;;;;;15.18;8.95;;;;;;;10.98;62.43;98768.31;5092397;28;20027;-52
2021/11/15 04:37:31;;;;;;;14.88;9.40;;;;;;;10.93;63.13;98766.28;5092399;28;20028;-53
2021/11/15 04:39:57;;;;;;;16.77;9.20;;;;;;;10.96;62.96;98765.06;5092303;28;20031;-53
2021/11/15 04:42:23;;;;;;;16.10;8.82;;;;;;;10.90;63.31;98766.69;5092223;28;20069;-53
2021/11/15 04:44:49;;;;;;;19.77;10.27;;;;;;;10.88;63.46;98760.81;5090930;28;20242;-53
2021/11/15 04:47:15;;;;;;;18.83;10.68;;;;;;;10.91;63.59;98762.25;5090744;28;20032;-53
2021/11/15 04:49:40;;;;;;;17.70;9.88;;;;;;;10.82;63.15;98771.31;5092155;28;20108;-53
2021/11/15 04:52:07;;;;;;;17.40;9.43;;;;;;;10.68;64.10;98760.78;5092071;28;20042;-53
2021/11/15 04:54:33;;;;;;;20.58;9.40;;;;;;;10.74;63.98;98757.34;5090749;28;20023;-53
2021/11/15 04:56:59;;;;;;;23.05;10.57;;;;;;;10.85;64.13;98750.72;5092033;28;20402;-52
2021/11/15 04:59:25;;;;;;;17.88;9.65;;;;;;;10.92;63.85;98745.47;5090738;28;20031;-53
2021/11/15 05:01:50;;;;;;;15.15;9.48;;;;;;;10.99;63.95;98743.69;5090685;28;20460;-52
2021/11/15 05:04:16;;;;;;;22.15;8.80;;;;;;;11.06;63.77;98757.59;5090714;28;20027;-53
2021/11/15 05:06:42;;;;;;;16.83;9.65;;;;;;;11.08;63.61;98757.41;5091845;28;20115;-53
2021/11/15 05:09:07;;;;;;;21.27;10.82;;;;;;;11.08;63.68;98767.91;5090590;28;20059;-52
2021/11/15 05:11:33;;;;;;;29.92;14.65;;;;;;;11.08;63.76;98766.09;5091995;28;20405;-52
2021/11/15 05:13:59;;;;;;;17.33;11.23;;;;;;;11.03;64.25;98760.66;5090688;28;20020;-52
2021/11/15 05:16:25;;;;;;;17.50;10.68;;;;;;;11.00;64.37;98761.03;5092289;28;20024;-52
2021/11/15 05:18:50;;;;;;;19.52;10.77;;;;;;;11.05;63.94;98757.81;5096142;28;20102;-52
2021/11/15 05:21:17;;;;;;;25.77;10.27;;;;;;;11.06;63.89;98747.09;5096004;28;20020;-53
2021/11/15 05:23:44;;;;;;;17.00;9.93;;;;;;;11.09;64.27;98759.84;5096045;28;20020;-53
2021/11/15 05:26:10;;;;;;;15.80;9.93;;;;;;;10.90;64.07;98771.94;5095441;28;20059;-52
2021/11/15 05:28:36;;;;;;;16.40;9.55;;;;;;;10.91;64.53;98780.63;5095822;28;20425;-53
2021/11/15 05:31:02;;;;;;;21.83;11.20;;;;;;;10.92;64.18;98777.00;5095871;28;20031;-53
2021/11/15 05:33:27;;;;;;;65.45;17.85;;;;;;;10.89;64.18;98778.19;5095837;28;20025;-53
2021/11/15 05:35:53;;;;;;;125.18;68.20;;;;;;;10.88;64.56;98779.19;5095738;28;20035;-53
2021/11/15 05:38:19;;;;;;;70.18;20.30;;;;;;;10.88;64.75;98787.06;5095699;28;20040;-52
2021/11/15 05:40:44;;;;;;;29.60;11.23;;;;;;;10.89;64.45;98787.91;5095711;28;20107;-53
2021/11/15 05:43:10;;;;;;;19.88;11.45;;;;;;;10.94;64.49;98783.66;5094349;28;20048;-52
2021/11/15 05:45:39;;;;;;;18.73;10.63;;;;;;;10.96;64.30;98780.81;5095697;28;20082;-53
2021/11/15 05:48:04;;;;;;;25.90;11.88;;;;;;;11.06;64.55;98777.81;5095479;28;20024;-52
2021/11/15 05:50:30;;;;;;;13.63;9.85;;;;;;;11.13;64.37;98774.19;5095459;28;20073;-52
2021/11/15 05:52:57;;;;;;;24.08;11.00;;;;;;;11.15;63.99;98777.41;5094111;28;20400;-52
2021/11/15 05:55:24;;;;;;;20.73;10.00;;;;;;;11.19;64.05;98777.84;5095262;28;20067;-52
2021/11/15 05:57:51;;;;;;;38.75;26.02;;;;;;;11.22;64.06;98781.88;5095368;28;20024;-52
2021/11/15 06:00:21;;;;;;;17.30;11.07;;;;;;;11.21;63.84;98783.69;5095250;28;20027;-53
2021/11/15 06:02:46;;;;;;;15.15;10.68;;;;;;;11.22;63.83;98773.97;5093951;28;20066;-53
2021/11/15 06:05:12;;;;;;;18.25;10.13;;;;;;;11.21;63.88;98775.81;5095160;28;20056;-52
2021/11/15 06:07:38;;;;;;;18.98;9.68;;;;;;;11.24;63.85;98771.97;5095167;28;20078;-52
2021/11/15 06:10:08;;;;;;;25.27;11.23;;;;;;;11.29;63.48;98782.66;5093755;28;20035;-52
2021/11/15 06:12:37;;;;;;;14.93;9.32;;;;;;;11.32;63.48;98769.94;5095064;28;20081;-52
2021/11/15 06:15:03;;;;;;;23.40;12.68;;;;;;;11.33;63.62;98781.28;5095010;28;20024;-53
2021/11/15 06:17:29;;;;;;;17.05;9.38;;;;;;;11.28;63.80;98773.97;5094934;28;20487;-52
2021/11/15 06:19:55;;;;;;;16.17;10.68;;;;;;;11.25;63.47;98777.03;5093642;28;20032;-53
2021/11/15 06:22:21;;;;;;;23.45;12.15;;;;;;;11.18;63.67;98784.88;5094842;28;20020;-53
2021/11/15 06:24:49;;;;;;;18.35;10.00;;;;;;;11.20;63.61;98787.31;5094853;28;20375;-52
2021/11/15 06:27:16;;;;;;;21.70;11.02;;;;;;;11.27;63.81;98790.75;5094056;28;20394;-52
2021/11/15 06:29:43;;;;;;;21.48;12.65;;;;;;;11.32;63.65;98804.09;5094769;28;20012;-52
2021/11/15 06:32:09;;;;;;;20.52;9.95;;;;;;;11.37;63.75;98803.50;5094767;28;20404;-52
2021/11/15 06:34:35;;;;;;;13.50;9.23;;;;;;;11.39;63.10;98802.28;5094680;28;20077;-52
2021/11/15 06:37:02;;;;;;;21.35;10.45;;;;;;;11.35;62.99;98808.94;5094608;28;20063;-52
2021/11/15 06:39:27;;;;;;;15.48;10.52;;;;;;;11.32;63.53;98808.53;5094622;28;20375;-53
2021/11/15 06:41:57;;;;;;;20.98;14.25;;;;;;;11.28;63.50;98802.06;5093222;28;20031;-53
2021/11/15 06:44:26;;;;;;;26.83;10.00;;;;;;;11.22;63.49;98810.75;5094744;28;20096;-53
2021/11/15 06:46:52;;;;;;;16.63;11.02;;;;;;;11.14;63.53;98811.75;5093001;28;20028;-53
2021/11/15 06:49:18;;;;;;;17.98;9.38;;;;;;;11.05;63.59;98807.72;5094336;28;20059;-53
2021/11/15 06:51:46;;;;;;;18.63;10.10;;;;;;;11.03;64.19;98812.34;5094363;28;20040;-52
2021/11/15 06:54:13;;;;;;;15.25;8.95;;;;;;;11.16;63.78;98815.78;5094286;28;20069;-52
2021/11/15 06:56:39;;;;;;;16.00;9.18;;;;;;;11.28;63.86;98808.13;5094219;28;20028;-52
2021/11/15 06:59:05;;;;;;;15.27;8.80;;;;;;;11.23;63.16;98815.81;5094194;28;20562;-53
2021/11/15 07:01:36;;;;;;;17.10;9.38;;;;;;;11.18;63.83;98813.78;5092802;28;20043;-52
2021/11/15 07:04:04;;;;;;;13.43;8.93;;;;;;;11.22;63.42;98816.00;5094150;28;20031;-52
2021/11/15 07:06:29;;;;;;;13.95;9.00;;;;;;;11.18;63.60;98820.84;5093969;28;20028;-53
2021/11/15 07:08:55;;;;;;;11.07;8.32;;;;;;;11.14;63.96;98825.69;5093971;28;20073;-53
2021/11/15 07:11:22;;;;;;;12.52;8.30;;;;;;;11.16;63.24;98821.06;5093937;28;20105;-52
2021/11/15 07:13:48;;;;;;;15.27;8.40;;;;;;;11.20;63.59;98826.72;5093947;28;20020;-52
2021/11/15 07:16:14;;;;;;;13.30;8.75;;;;;;;11.28;63.26;98826.53;5092472;28;20456;-52
2021/11/15 07:18:40;;;;;;;15.48;8.38;;;;;;;11.33;63.23;98841.69;5093754;28;20493;-52
2021/11/15 07:21:07;;;;;;;14.50;7.97;;;;;;;11.37;63.02;98835.84;5092420;28;20516;-53
2021/11/15 07:23:33;;;;;;;30.77;10.95;;;;;;;11.39;62.77;98839.06;5093708;28;20030;-52
2021/11/15 07:25:58;;;;;;;12.95;9.52;;;;;;;11.40;62.82;98835.41;5093374;28;20430;-52
2021/11/15 07:28:25;;;;;;;12.82;7.68;;;;;;;11.34;62.77;98832.78;5093636;28;20024;-53
2021/11/15 07:30:54;;;;;;;13.50;8.90;;;;;;;11.28;63.24;98844.91;5093535;28;20103;-52
2021/11/15 07:33:27;;;;;;;24.02;14.70;;;;;;;11.32;63.25;98840.88;5093535;28;20034;-53
2021/11/15 07:35:54;;;;;;;13.02;7.78;;;;;;;11.27;63.11;98840.69;5093406;28;20024;-53
2021/11/15 07:38:23;;;;;;;15.23;7.65;;;;;;;11.25;63.44;98840.06;5093455;28;20060;-52
2021/11/15 07:40:50;;;;;;;18.40;10.27;;;;;;;11.28;63.51;98844.13;5092528;28;20043;-53
2021/11/15 07:43:16;;;;;;;11.55;7.60;;;;;;;11.33;63.85;98837.25;5093339;28;20142;-52
2021/11/15 07:45:43;;;;;;;15.23;8.13;;;;;;;11.31;63.32;98843.72;5093167;28;20039;-52
2021/11/15 07:48:09;;;;;;;14.02;8.50;;;;;;;11.11;63.38;98848.94;5091906;28;20024;-53
2021/11/15 07:50:35;;;;;;;22.17;9.45;;;;;;;10.99;63.97;98846.09;5093180;28;20385;-53
2021/11/15 07:53:02;;;;;;;17.23;10.40;;;;;;;11.09;63.98;98841.25;5093145;28;20030;-53
2021/11/15 07:55:28;;;;;;;20.92;9.10;;;;;;;11.18;63.86;98844.50;5093067;28;20027;-53
2021/11/15 07:57:56;;;;;;;16.05;8.90;;;;;;;11.30;63.57;98836.84;5092997;28;20024;-52
2021/11/15 08:00:23;;;;;;;16.58;9.32;;;;;;;11.37;63.17;98829.78;5092994;28;20020;-52
2021/11/15 08:02:49;;;;;;;13.52;8.07;;;;;;;11.36;62.83;98836.03;5092965;28;20032;-52
2021/11/15 08:05:17;;;;;;;18.38;9.00;;;;;;;11.40;62.73;98827.53;5091453;28;20020;-52
2021/11/15 08:07:44;;;;;;;12.48;8.75;;;;;;;11.45;62.72;98824.31;5092861;28;20024;-53
2021/11/15 08:10:12;;;;;;;14.52;8.00;;;;;;;11.53;62.87;98826.75;5092783;28;20167;-52
2021/11/15 08:12:42;;;;;;;12.85;8.90;;;;;;;11.53;62.73;98825.91;5091439;28;20402;-53
2021/11/15 08:15:10;;;;;;;13.35;9.05;;;;;;;11.46;62.67;98828.56;5092776;28;20058;-53
2021/11/15 08:17:40;;;;;;;12.65;8.05;;;;;;;11.43;62.76;98836.03;5091351;28;20420;-53
2021/11/15 08:20:10;;;;;;;13.20;8.93;;;;;;;11.52;62.35;98845.34;5091373;28;20119;-53
2021/11/15 08:22:36;;;;;;;15.05;10.43;;;;;;;11.47;62.46;98853.84;5092986;28;20438;-53
2021/11/15 08:25:51;;;;;;;13.70;9.05;;;;;;;11.49;62.43;98859.69;5090966;28;20031;-53
2021/11/15 08:28:18;;;;;;;15.30;9.38;;;;;;;11.54;62.56;98867.78;5088862;28;20050;-53
2021/11/15 08:30:45;;;;;;;10.77;8.45;;;;;;;11.64;62.41;98856.06;5092243;28;20048;-53
2021/11/15 08:33:12;;;;;;;14.82;9.00;;;;;;;11.70;62.16;98853.41;5091088;28;20028;-53
2021/11/15 08:35:38;;;;;;;25.40;16.73;;;;;;;11.65;62.21;98860.28;5092310;28;20421;-53
2021/11/15 08:38:31;;;;;;;19.25;11.45;;;;;;;11.56;62.10;98862.31;5092358;28;20017;-53
2021/11/15 08:40:57;;;;;;;22.27;10.50;;;;;;;11.47;62.46;98853.84;5092295;28;20115;-52
2021/11/15 08:43:24;;;;;;;23.23;15.85;;;;;;;11.51;62.47;98862.09;5090911;28;20123;-53
2021/11/15 08:45:50;;;;;;;16.63;13.23;;;;;;;11.46;62.78;98854.84;5092126;28;20020;-53
2021/11/15 08:48:17;;;;;;;19.05;11.77;;;;;;;11.51;62.66;98855.06;5090857;28;20367;-53
2021/11/15 08:50:43;;;;;;;16.80;10.75;;;;;;;11.64;62.59;98859.47;5091966;28;20020;-52
2021/11/15 08:53:09;;;;;;;19.88;10.23;;;;;;;11.73;62.32;98846.94;5092137;28;20024;-52
2021/11/15 08:55:36;;;;;;;13.43;8.63;;;;;;;11.75;62.09;98850.16;5092062;28;20481;-52
2021/11/15 08:58:03;;;;;;;15.25;8.68;;;;;;;11.79;62.07;98851.38;5092015;28;20598;-52
2021/11/15 09:00:30;;;;;;;14.10;8.70;;;;;;;11.82;62.54;98850.19;5090661;28;20027;-53
2021/11/15 09:02:56;;;;;;;15.55;9.23;;;;;;;11.87;61.96;98847.72;5090682;28;20090;-52
2021/11/15 09:05:23;;;;;;;13.48;8.68;;;;;;;11.78;61.70;98844.50;5090581;28;20024;-53
2021/11/15 09:07:49;;;;;;;14.25;8.77;;;;;;;11.68;62.11;98852.00;5090558;28;20023;-52
2021/11/15 09:10:15;;;;;;;338.95;304.42;;;;;;;11.71;62.07;98847.16;5091867;28;20050;-53
2021/11/15 09:12:44;;;;;;;110.10;88.20;;;;;;;11.72;62.98;98854.00;5091880;28;20016;-53
2021/11/15 09:15:14;;;;;;;48.50;41.50;;;;;;;11.65;63.35;98852.41;5091817;28;20030;-53
2021/11/15 09:17:42;;;;;;;20.95;14.63;;;;;;;11.53;63.28;98860.09;5090575;28;20131;-53
2021/11/15 09:20:10;;;;;;;17.63;12.27;;;;;;;11.37;63.27;98862.13;5091811;28;20032;-53
2021/11/15 09:22:38;;;;;;;18.70;12.00;;;;;;;11.32;63.81;98864.53;5091751;28;20115;-53
2021/11/15 09:25:05;;;;;;;21.63;11.68;;;;;;;11.25;64.08;98865.50;5091688;28;20025;-53
2021/11/15 09:27:31;;;;;;;24.58;11.25;;;;;;;11.28;64.37;98873.00;5091564;28;20036;-52
2021/11/15 09:29:59;;;;;;;20.25;12.15;;;;;;;11.32;64.16;98867.16;5091662;28;20024;-52
2021/11/15 09:32:25;;;;;;;22.17;12.25;;;;;;;11.42;64.11;98863.31;5091700;28;20042;-52
2021/11/15 09:34:51;;;;;;;22.35;12.45;;;;;;;11.62;63.78;98860.72;5091644;28;20028;-53
2021/11/15 09:37:19;;;;;;;26.00;14.55;;;;;;;11.72;63.06;98861.91;5091632;28;20024;-53
2021/11/15 09:39:47;;;;;;;17.75;12.52;;;;;;;11.84;62.72;98861.31;5091671;28;20012;-53
2021/11/15 09:42:14;;;;;;;15.38;11.50;;;;;;;11.96;62.23;98859.69;5091632;28;20051;-52
2021/11/15 09:44:41;;;;;;;18.65;13.85;;;;;;;12.10;61.67;98860.47;5091646;28;20032;-52
2021/11/15 09:47:08;;;;;;;22.45;13.35;;;;;;;12.12;61.77;98866.34;5090137;28;20027;-52
2021/11/15 09:49:35;;;;;;;18.67;13.32;;;;;;;12.14;61.68;98875.66;5090273;28;20024;-52
2021/11/15 09:52:01;;;;;;;21.50;13.02;;;;;;;12.21;61.73;98877.44;5091772;28;20389;-53
2021/11/15 09:54:28;;;;;;;20.48;13.52;;;;;;;12.26;61.58;98869.75;5091497;28;20059;-53
2021/11/15 09:56:54;;;;;;;345.73;300.60;;;;;;;12.28;60.99;98870.38;5091393;28;20055;-52
2021/11/15 09:59:21;;;;;;;273.10;168.02;;;;;;;12.30;60.85;98870.97;5091432;28;20025;-53
2021/11/15 10:01:49;;;;;;;108.70;97.22;;;;;;;12.27;61.16;98869.53;5091469;28;20024;-52
2021/11/15 10:04:18;;;;;;;40.50;30.30;;;;;;;12.24;61.21;98875.22;5094807;28;20020;-52
2021/11/15 10:06:46;;;;;;;24.40;16.92;;;;;;;12.02;61.49;98872.03;5095252;28;20016;-53
2021/11/15 10:09:12;;;;;;;19.45;16.08;;;;;;;11.99;61.40;98875.06;5095137;28;20103;-53
2021/11/15 10:11:48;;;;;;;17.77;12.93;;;;;;;11.96;61.41;98872.84;5095177;28;20020;-52
2021/11/15 10:14:14;;;;;;;;;;;;;;;12.03;61.10;98881.53;5095539;28;20024;-53
2021/11/15 10:16:47;;;;;;;19.35;13.98;;;;;;;11.89;60.84;98869.41;5095001;28;19916;-52
2021/11/15 10:19:15;;;;;;;349.45;303.83;;;;;;;11.84;61.33;98875.25;5095032;28;20031;-52
2021/11/15 10:21:49;;;;;;;1999.90;999.90;;;;;;;11.86;61.64;98878.47;5094942;28;20119;-53
2021/11/15 10:24:17;;;;;;;1999.90;999.90;;;;;;;11.82;61.53;98879.91;5093559;28;20035;-53
2021/11/15 10:26:53;;;;;;;1999.90;999.90;;;;;;;11.79;62.04;98875.88;5094389;28;20043;-53
2021/11/15 10:29:22;;;;;;;1999.90;999.90;;;;;;;11.96;62.01;98864.94;5094880;28;20055;-53
2021/11/15 10:32:04;;;;;;;1994.80;913.30;;;;;;;12.05;61.10;98868.16;5094724;28;20020;-52
2021/11/15 10:34:34;;;;;;;338.65;189.30;;;;;;;11.91;61.37;98865.56;5094740;28;20548;-52
2021/11/15 10:37:35;;;;;;;219.48;111.50;;;;;;;11.72;61.33;98872.41;5094627;28;20476;-53
2021/11/15 10:40:07;;;;;;;141.30;68.80;;;;;;;11.71;61.57;98875.25;5071332;28;20505;-52
2021/11/15 10:42:48;;;;;;;109.13;57.08;;;;;;;11.72;61.57;98861.09;5093183;28;20131;-53
2021/11/15 10:45:24;;;;;;;89.68;43.60;;;;;;;11.69;61.87;98869.38;5094426;28;20031;-52
2021/11/15 10:47:54;;;;;;;91.95;48.45;;;;;;;11.71;62.13;98870.81;5094510;28;20086;-53
2021/11/15 10:50:28;;;;;;;71.13;37.35;;;;;;;11.91;61.45;98862.13;5094346;28;20024;-52
2021/11/15 10:53:07;;;;;;;52.60;29.95;;;;;;;12.04;60.97;98856.84;5094418;28;20024;-52
2021/11/15 10:55:37;;;;;;;39.80;25.60;;;;;;;11.95;60.73;98856.25;5094242;28;20024;-53
2021/11/15 10:58:21;;;;;;;45.63;26.17;;;;;;;11.95;61.17;98845.75;5094295;28;20397;-52
2021/11/15 11:01:02;;;;;;;225.77;175.80;;;;;;;12.16;61.13;98849.94;5092835;28;20025;-52
2021/11/15 11:03:30;;;;;;;33.10;22.95;;;;;;;12.37;60.33;98848.06;5094231;28;20517;-53
2021/11/15 11:06:01;;;;;;;25.27;15.98;;;;;;;12.10;59.92;98853.38;5093909;28;20534;-52
2021/11/15 11:08:31;;;;;;;32.85;16.75;;;;;;;11.91;60.78;98848.97;5092730;28;20081;-53
2021/11/15 11:11:06;;;;;;;21.20;14.20;;;;;;;11.87;61.32;98843.31;5094011;28;20455;-52
2021/11/15 11:13:47;;;;;;;27.38;15.52;;;;;;;11.96;61.27;98836.03;5093522;28;20111;-52
2021/11/15 11:16:14;;;;;;;25.00;13.98;;;;;;;12.13;61.02;98846.91;5093427;28;20060;-52
2021/11/15 11:18:52;;;;;;;24.27;13.77;;;;;;;12.26;60.36;98846.88;5093782;28;20035;-53
2021/11/15 11:26:28;;;;;;;23.73;13.75;;;;;;;12.59;59.60;98841.47;5093417;28;20417;-53
2021/11/15 11:29:00;;;;;;;20.15;13.68;;;;;;;12.63;59.41;98825.28;5093698;28;20134;-52
2021/11/15 11:31:27;;;;;;;18.23;12.73;;;;;;;12.66;59.52;98835.41;5093615;28;20462;-52